sensor_id;sensor_type;location;lat;lon;timestamp;P1;durP1;ratioP1;P2;durP2;ratioP2
51190;SDS011;37253;48.736;9.294;2024-03-02T00:01:54;4.07;;;2.47;;
51190;SDS011;37253;48.736;9.294;2024-03-02T00:03:55;2.88;;;2.00;;
51190;SDS011;37253;48.736;9.294;2024-03-02T00:05:55;2.03;;;1.80;;
51190;SDS011;37253;48.736;9.294;2024-03-02T00:07:56;3.33;;;2.20;;
51190;SDS011;37253;48.736;9.294;2024-03-02T00:09:57;2.30;;;2.00;;
51190;SDS011;37253;48.736;9.294;2024-03-02T00:11:58;3.40;;;2.10;;
51190;SDS011;37253;48.736;9.294;2024-03-02T00:14:00;3.20;;;2.00;;
51190;SDS011;37253;48.736;9.294;2024-03-02T00:16:00;2.17;;;1.70;;
51190;SDS011;37253;48.736;9.294;2024-03-02T00:18:00;1.90;;;1.70;;
51190;SDS011;37253;48.736;9.294;2024-03-02T00:20:01;2.97;;;1.85;;
51190;SDS011;37253;48.736;9.294;2024-03-02T00:22:05;2.22;;;1.95;;
51190;SDS011;37253;48.736;9.294;2024-03-02T00:26:31;2.30;;;1.70;;
51190;SDS011;37253;48.736;9.294;2024-03-02T00:28:35;2.33;;;1.95;;
51190;SDS011;37253;48.736;9.294;2024-03-02T00:32:42;1.85;;;1.65;;
51190;SDS011;37253;48.736;9.294;2024-03-02T00:34:43;3.40;;;2.00;;
51190;SDS011;37253;48.736;9.294;2024-03-02T00:36:43;2.58;;;1.85;;
51190;SDS011;37253;48.736;9.294;2024-03-02T00:38:44;2.72;;;1.95;;
51190;SDS011;37253;48.736;9.294;2024-03-02T00:40:46;2.38;;;2.08;;
51190;SDS011;37253;48.736;9.294;2024-03-02T00:42:47;4.43;;;2.45;;
51190;SDS011;37253;48.736;9.294;2024-03-02T00:44:47;2.25;;;1.77;;
51190;SDS011;37253;48.736;9.294;2024-03-02T00:46:47;2.03;;;1.60;;
51190;SDS011;37253;48.736;9.294;2024-03-02T00:48:50;2.35;;;1.67;;
51190;SDS011;37253;48.736;9.294;2024-03-02T00:50:52;2.38;;;1.48;;
51190;SDS011;37253;48.736;9.294;2024-03-02T00:52:52;4.07;;;2.05;;
51190;SDS011;37253;48.736;9.294;2024-03-02T00:54:53;2.33;;;2.08;;
51190;SDS011;37253;48.736;9.294;2024-03-02T00:56:57;3.30;;;1.83;;
51190;SDS011;37253;48.736;9.294;2024-03-02T00:58:57;3.75;;;2.00;;
51190;SDS011;37253;48.736;9.294;2024-03-02T01:00:57;2.00;;;1.45;;
51190;SDS011;37253;48.736;9.294;2024-03-02T01:02:58;3.03;;;2.00;;
51190;SDS011;37253;48.736;9.294;2024-03-02T01:04:58;3.05;;;1.70;;
51190;SDS011;37253;48.736;9.294;2024-03-02T01:06:58;1.92;;;1.60;;
51190;SDS011;37253;48.736;9.294;2024-03-02T01:08:59;2.22;;;1.58;;
51190;SDS011;37253;48.736;9.294;2024-03-02T01:10:59;2.00;;;1.63;;
51190;SDS011;37253;48.736;9.294;2024-03-02T01:12:59;2.20;;;1.60;;
51190;SDS011;37253;48.736;9.294;2024-03-02T01:15:00;2.25;;;1.60;;
51190;SDS011;37253;48.736;9.294;2024-03-02T01:17:00;1.65;;;1.50;;
51190;SDS011;37253;48.736;9.294;2024-03-02T01:19:03;2.10;;;1.50;;
51190;SDS011;37253;48.736;9.294;2024-03-02T01:21:03;3.17;;;1.58;;
51190;SDS011;37253;48.736;9.294;2024-03-02T01:23:04;2.33;;;1.85;;
51190;SDS011;37253;48.736;9.294;2024-03-02T01:25:04;2.92;;;1.67;;
51190;SDS011;37253;48.736;9.294;2024-03-02T01:27:05;5.00;;;1.60;;
51190;SDS011;37253;48.736;9.294;2024-03-02T01:29:05;2.50;;;1.80;;
51190;SDS011;37253;48.736;9.294;2024-03-02T01:31:05;2.95;;;2.00;;
51190;SDS011;37253;48.736;9.294;2024-03-02T01:33:06;2.85;;;1.80;;
51190;SDS011;37253;48.736;9.294;2024-03-02T01:35:06;2.00;;;1.63;;
51190;SDS011;37253;48.736;9.294;2024-03-02T01:37:07;2.95;;;1.60;;
51190;SDS011;37253;48.736;9.294;2024-03-02T01:39:07;3.05;;;1.63;;
51190;SDS011;37253;48.736;9.294;2024-03-02T01:41:09;2.55;;;1.73;;
51190;SDS011;37253;48.736;9.294;2024-03-02T01:43:10;2.05;;;1.70;;
51190;SDS011;37253;48.736;9.294;2024-03-02T01:45:10;2.35;;;1.40;;
51190;SDS011;37253;48.736;9.294;2024-03-02T01:47:10;3.40;;;1.63;;
51190;SDS011;37253;48.736;9.294;2024-03-02T01:49:11;2.53;;;1.50;;
51190;SDS011;37253;48.736;9.294;2024-03-02T01:51:11;1.83;;;1.50;;
51190;SDS011;37253;48.736;9.294;2024-03-02T01:53:11;1.90;;;1.42;;
51190;SDS011;37253;48.736;9.294;2024-03-02T01:55:12;2.13;;;1.60;;
51190;SDS011;37253;48.736;9.294;2024-03-02T01:57:12;1.63;;;1.50;;
51190;SDS011;37253;48.736;9.294;2024-03-02T01:59:12;2.53;;;1.70;;
51190;SDS011;37253;48.736;9.294;2024-03-02T02:01:13;2.00;;;1.50;;
51190;SDS011;37253;48.736;9.294;2024-03-02T02:03:14;3.90;;;1.60;;
51190;SDS011;37253;48.736;9.294;2024-03-02T02:05:14;3.10;;;1.55;;
51190;SDS011;37253;48.736;9.294;2024-03-02T02:07:15;2.28;;;1.55;;
51190;SDS011;37253;48.736;9.294;2024-03-02T02:09:15;2.45;;;1.70;;
51190;SDS011;37253;48.736;9.294;2024-03-02T02:11:18;1.63;;;1.50;;
51190;SDS011;37253;48.736;9.294;2024-03-02T02:13:18;1.50;;;1.30;;
51190;SDS011;37253;48.736;9.294;2024-03-02T02:15:26;2.05;;;1.50;;
51190;SDS011;37253;48.736;9.294;2024-03-02T02:17:26;1.90;;;1.30;;
51190;SDS011;37253;48.736;9.294;2024-03-02T02:19:27;2.67;;;1.40;;
51190;SDS011;37253;48.736;9.294;2024-03-02T02:21:27;2.65;;;1.50;;
51190;SDS011;37253;48.736;9.294;2024-03-02T02:23:27;2.42;;;1.50;;
51190;SDS011;37253;48.736;9.294;2024-03-02T02:25:28;1.48;;;1.25;;
51190;SDS011;37253;48.736;9.294;2024-03-02T02:27:29;1.95;;;1.20;;
51190;SDS011;37253;48.736;9.294;2024-03-02T02:29:30;2.85;;;1.50;;
51190;SDS011;37253;48.736;9.294;2024-03-02T02:31:40;1.60;;;1.40;;
51190;SDS011;37253;48.736;9.294;2024-03-02T02:33:41;3.40;;;1.40;;
51190;SDS011;37253;48.736;9.294;2024-03-02T02:35:42;1.83;;;1.50;;
51190;SDS011;37253;48.736;9.294;2024-03-02T02:37:42;2.75;;;1.40;;
51190;SDS011;37253;48.736;9.294;2024-03-02T02:39:44;2.50;;;1.52;;
51190;SDS011;37253;48.736;9.294;2024-03-02T02:41:46;2.13;;;1.55;;
51190;SDS011;37253;48.736;9.294;2024-03-02T02:43:46;1.33;;;1.20;;
51190;SDS011;37253;48.736;9.294;2024-03-02T02:45:47;2.28;;;1.23;;
51190;SDS011;37253;48.736;9.294;2024-03-02T02:47:47;3.15;;;1.38;;
51190;SDS011;37253;48.736;9.294;2024-03-02T02:49:47;2.85;;;1.33;;
51190;SDS011;37253;48.736;9.294;2024-03-02T02:51:48;2.03;;;1.33;;
51190;SDS011;37253;48.736;9.294;2024-03-02T02:53:48;1.98;;;1.40;;
51190;SDS011;37253;48.736;9.294;2024-03-02T02:55:48;1.88;;;1.40;;
51190;SDS011;37253;48.736;9.294;2024-03-02T02:57:49;2.20;;;1.33;;
51190;SDS011;37253;48.736;9.294;2024-03-02T02:59:49;2.35;;;1.42;;
51190;SDS011;37253;48.736;9.294;2024-03-02T03:01:51;1.83;;;1.23;;
51190;SDS011;37253;48.736;9.294;2024-03-02T03:03:51;1.25;;;1.15;;
51190;SDS011;37253;48.736;9.294;2024-03-02T03:05:52;1.48;;;1.38;;
51190;SDS011;37253;48.736;9.294;2024-03-02T03:07:52;2.53;;;1.30;;
51190;SDS011;37253;48.736;9.294;2024-03-02T03:09:53;1.65;;;1.10;;
51190;SDS011;37253;48.736;9.294;2024-03-02T03:11:53;2.13;;;1.40;;
51190;SDS011;37253;48.736;9.294;2024-03-02T03:13:53;2.05;;;1.30;;
51190;SDS011;37253;48.736;9.294;2024-03-02T03:15:54;1.30;;;1.00;;
51190;SDS011;37253;48.736;9.294;2024-03-02T03:17:54;1.60;;;1.40;;
51190;SDS011;37253;48.736;9.294;2024-03-02T03:19:55;1.30;;;1.20;;
51190;SDS011;37253;48.736;9.294;2024-03-02T03:21:55;2.75;;;1.40;;
51190;SDS011;37253;48.736;9.294;2024-03-02T03:23:55;1.85;;;1.15;;
51190;SDS011;37253;48.736;9.294;2024-03-02T03:25:56;2.72;;;1.15;;
51190;SDS011;37253;48.736;9.294;2024-03-02T03:27:56;1.45;;;1.20;;
51190;SDS011;37253;48.736;9.294;2024-03-02T03:29:57;1.55;;;1.20;;
51190;SDS011;37253;48.736;9.294;2024-03-02T03:31:57;1.65;;;1.27;;
51190;SDS011;37253;48.736;9.294;2024-03-02T03:33:57;1.52;;;1.10;;
51190;SDS011;37253;48.736;9.294;2024-03-02T03:35:58;2.13;;;1.20;;
51190;SDS011;37253;48.736;9.294;2024-03-02T03:37:58;3.70;;;1.23;;
51190;SDS011;37253;48.736;9.294;2024-03-02T03:39:59;1.40;;;1.10;;
51190;SDS011;37253;48.736;9.294;2024-03-02T03:42:01;1.90;;;1.20;;
51190;SDS011;37253;48.736;9.294;2024-03-02T03:44:01;1.88;;;1.38;;
51190;SDS011;37253;48.736;9.294;2024-03-02T03:46:01;2.50;;;1.30;;
51190;SDS011;37253;48.736;9.294;2024-03-02T03:48:02;1.63;;;1.23;;
51190;SDS011;37253;48.736;9.294;2024-03-02T03:50:03;1.10;;;1.00;;
51190;SDS011;37253;48.736;9.294;2024-03-02T03:52:06;1.38;;;1.10;;
51190;SDS011;37253;48.736;9.294;2024-03-02T03:54:07;1.77;;;1.23;;
51190;SDS011;37253;48.736;9.294;2024-03-02T03:56:07;1.63;;;1.33;;
51190;SDS011;37253;48.736;9.294;2024-03-02T03:58:07;1.38;;;1.27;;
51190;SDS011;37253;48.736;9.294;2024-03-02T04:00:08;1.50;;;1.20;;
51190;SDS011;37253;48.736;9.294;2024-03-02T04:02:10;2.97;;;1.40;;
51190;SDS011;37253;48.736;9.294;2024-03-02T04:04:12;1.63;;;1.23;;
51190;SDS011;37253;48.736;9.294;2024-03-02T04:06:13;2.08;;;1.10;;
51190;SDS011;37253;48.736;9.294;2024-03-02T04:08:13;1.75;;;1.30;;
51190;SDS011;37253;48.736;9.294;2024-03-02T04:10:14;1.83;;;1.27;;
51190;SDS011;37253;48.736;9.294;2024-03-02T04:12:16;1.33;;;1.10;;
51190;SDS011;37253;48.736;9.294;2024-03-02T04:14:16;1.40;;;1.30;;
51190;SDS011;37253;48.736;9.294;2024-03-02T04:16:17;2.17;;;1.15;;
51190;SDS011;37253;48.736;9.294;2024-03-02T04:18:17;2.25;;;1.23;;
51190;SDS011;37253;48.736;9.294;2024-03-02T04:20:18;1.10;;;1.00;;
51190;SDS011;37253;48.736;9.294;2024-03-02T04:22:18;2.88;;;1.00;;
51190;SDS011;37253;48.736;9.294;2024-03-02T04:24:18;2.13;;;1.10;;
51190;SDS011;37253;48.736;9.294;2024-03-02T04:26:19;1.10;;;0.98;;
51190;SDS011;37253;48.736;9.294;2024-03-02T04:28:22;1.40;;;1.10;;
51190;SDS011;37253;48.736;9.294;2024-03-02T04:30:22;1.10;;;1.00;;
51190;SDS011;37253;48.736;9.294;2024-03-02T04:32:22;1.35;;;1.17;;
51190;SDS011;37253;48.736;9.294;2024-03-02T04:34:23;2.08;;;1.20;;
51190;SDS011;37253;48.736;9.294;2024-03-02T04:36:23;1.60;;;1.23;;
51190;SDS011;37253;48.736;9.294;2024-03-02T04:38:24;1.30;;;0.93;;
51190;SDS011;37253;48.736;9.294;2024-03-02T04:40:24;1.85;;;1.10;;
51190;SDS011;37253;48.736;9.294;2024-03-02T04:42:24;1.20;;;1.10;;
51190;SDS011;37253;48.736;9.294;2024-03-02T04:44:25;2.70;;;1.23;;
51190;SDS011;37253;48.736;9.294;2024-03-02T04:46:25;1.10;;;1.00;;
51190;SDS011;37253;48.736;9.294;2024-03-02T04:48:25;1.20;;;1.10;;
51190;SDS011;37253;48.736;9.294;2024-03-02T04:50:25;1.02;;;0.98;;
51190;SDS011;37253;48.736;9.294;2024-03-02T04:52:26;1.20;;;1.10;;
51190;SDS011;37253;48.736;9.294;2024-03-02T04:54:26;1.30;;;0.95;;
51190;SDS011;37253;48.736;9.294;2024-03-02T04:56:26;1.88;;;1.00;;
51190;SDS011;37253;48.736;9.294;2024-03-02T04:58:53;1.90;;;1.00;;
51190;SDS011;37253;48.736;9.294;2024-03-02T05:00:53;2.15;;;1.27;;
51190;SDS011;37253;48.736;9.294;2024-03-02T05:02:53;1.98;;;1.00;;
51190;SDS011;37253;48.736;9.294;2024-03-02T05:04:54;1.48;;;1.17;;
51190;SDS011;37253;48.736;9.294;2024-03-02T05:06:54;1.65;;;1.10;;
51190;SDS011;37253;48.736;9.294;2024-03-02T05:08:57;1.73;;;1.10;;
51190;SDS011;37253;48.736;9.294;2024-03-02T05:10:57;2.20;;;1.00;;
51190;SDS011;37253;48.736;9.294;2024-03-02T05:13:17;1.50;;;1.20;;
51190;SDS011;37253;48.736;9.294;2024-03-02T05:15:18;1.20;;;1.10;;
51190;SDS011;37253;48.736;9.294;2024-03-02T05:17:18;1.33;;;1.05;;
51190;SDS011;37253;48.736;9.294;2024-03-02T05:19:19;1.10;;;0.90;;
51190;SDS011;37253;48.736;9.294;2024-03-02T05:21:19;1.05;;;0.90;;
51190;SDS011;37253;48.736;9.294;2024-03-02T05:23:20;1.17;;;1.08;;
51190;SDS011;37253;48.736;9.294;2024-03-02T05:25:20;1.10;;;0.90;;
51190;SDS011;37253;48.736;9.294;2024-03-02T05:27:20;1.48;;;1.08;;
51190;SDS011;37253;48.736;9.294;2024-03-02T05:29:21;1.58;;;1.10;;
51190;SDS011;37253;48.736;9.294;2024-03-02T05:31:21;1.27;;;1.00;;
51190;SDS011;37253;48.736;9.294;2024-03-02T05:33:21;1.50;;;1.10;;
51190;SDS011;37253;48.736;9.294;2024-03-02T05:35:22;1.17;;;0.98;;
51190;SDS011;37253;48.736;9.294;2024-03-02T05:37:22;1.42;;;1.00;;
51190;SDS011;37253;48.736;9.294;2024-03-02T05:39:23;1.42;;;1.05;;
51190;SDS011;37253;48.736;9.294;2024-03-02T05:41:23;1.40;;;1.00;;
51190;SDS011;37253;48.736;9.294;2024-03-02T05:43:23;1.80;;;0.93;;
51190;SDS011;37253;48.736;9.294;2024-03-02T05:45:24;1.73;;;1.10;;
51190;SDS011;37253;48.736;9.294;2024-03-02T05:47:24;2.60;;;1.13;;
51190;SDS011;37253;48.736;9.294;2024-03-02T05:49:24;1.00;;;0.90;;
51190;SDS011;37253;48.736;9.294;2024-03-02T05:51:25;1.67;;;1.00;;
51190;SDS011;37253;48.736;9.294;2024-03-02T05:53:25;1.83;;;1.15;;
51190;SDS011;37253;48.736;9.294;2024-03-02T05:55:25;1.88;;;0.90;;
51190;SDS011;37253;48.736;9.294;2024-03-02T05:57:26;1.52;;;0.90;;
51190;SDS011;37253;48.736;9.294;2024-03-02T05:59:38;1.00;;;0.90;;
51190;SDS011;37253;48.736;9.294;2024-03-02T06:03:39;1.15;;;0.90;;
51190;SDS011;37253;48.736;9.294;2024-03-02T06:05:39;0.70;;;0.70;;
51190;SDS011;37253;48.736;9.294;2024-03-02T06:07:40;2.55;;;1.08;;
51190;SDS011;37253;48.736;9.294;2024-03-02T06:09:41;2.20;;;1.05;;
51190;SDS011;37253;48.736;9.294;2024-03-02T06:11:42;2.60;;;1.00;;
51190;SDS011;37253;48.736;9.294;2024-03-02T06:13:42;1.02;;;0.90;;
51190;SDS011;37253;48.736;9.294;2024-03-02T06:15:42;1.27;;;1.00;;
51190;SDS011;37253;48.736;9.294;2024-03-02T06:17:43;1.15;;;1.00;;
51190;SDS011;37253;48.736;9.294;2024-03-02T06:19:43;0.88;;;0.80;;
51190;SDS011;37253;48.736;9.294;2024-03-02T06:21:44;1.15;;;0.95;;
51190;SDS011;37253;48.736;9.294;2024-03-02T06:23:44;1.10;;;1.00;;
51190;SDS011;37253;48.736;9.294;2024-03-02T06:25:44;1.42;;;0.90;;
51190;SDS011;37253;48.736;9.294;2024-03-02T06:27:45;0.98;;;0.88;;
51190;SDS011;37253;48.736;9.294;2024-03-02T06:29:45;1.38;;;0.90;;
51190;SDS011;37253;48.736;9.294;2024-03-02T06:31:45;2.70;;;0.80;;
51190;SDS011;37253;48.736;9.294;2024-03-02T06:33:46;1.20;;;0.90;;
51190;SDS011;37253;48.736;9.294;2024-03-02T06:35:46;1.08;;;0.88;;
51190;SDS011;37253;48.736;9.294;2024-03-02T06:37:46;2.25;;;1.08;;
51190;SDS011;37253;48.736;9.294;2024-03-02T06:39:47;1.17;;;1.08;;
51190;SDS011;37253;48.736;9.294;2024-03-02T06:41:47;1.25;;;0.90;;
51190;SDS011;37253;48.736;9.294;2024-03-02T06:43:47;1.13;;;0.90;;
51190;SDS011;37253;48.736;9.294;2024-03-02T06:45:48;1.33;;;1.10;;
51190;SDS011;37253;48.736;9.294;2024-03-02T06:47:48;1.33;;;0.90;;
51190;SDS011;37253;48.736;9.294;2024-03-02T06:49:48;4.85;;;1.00;;
51190;SDS011;37253;48.736;9.294;2024-03-02T06:51:49;1.30;;;0.90;;
51190;SDS011;37253;48.736;9.294;2024-03-02T06:53:50;2.15;;;1.00;;
51190;SDS011;37253;48.736;9.294;2024-03-02T06:55:50;1.27;;;0.98;;
51190;SDS011;37253;48.736;9.294;2024-03-02T06:57:50;1.48;;;1.27;;
51190;SDS011;37253;48.736;9.294;2024-03-02T06:59:51;1.70;;;1.05;;
51190;SDS011;37253;48.736;9.294;2024-03-02T07:01:54;1.13;;;0.80;;
51190;SDS011;37253;48.736;9.294;2024-03-02T07:03:55;1.27;;;0.90;;
51190;SDS011;37253;48.736;9.294;2024-03-02T07:05:55;0.95;;;0.90;;
51190;SDS011;37253;48.736;9.294;2024-03-02T07:07:55;2.05;;;0.88;;
51190;SDS011;37253;48.736;9.294;2024-03-02T07:09:56;1.40;;;1.13;;
51190;SDS011;37253;48.736;9.294;2024-03-02T07:11:56;1.92;;;0.90;;
51190;SDS011;37253;48.736;9.294;2024-03-02T07:13:56;2.50;;;1.05;;
51190;SDS011;37253;48.736;9.294;2024-03-02T07:15:57;2.45;;;0.80;;
51190;SDS011;37253;48.736;9.294;2024-03-02T07:18:03;1.73;;;1.00;;
51190;SDS011;37253;48.736;9.294;2024-03-02T07:20:04;1.27;;;1.10;;
51190;SDS011;37253;48.736;9.294;2024-03-02T07:22:06;0.98;;;0.88;;
51190;SDS011;37253;48.736;9.294;2024-03-02T07:24:08;1.45;;;0.90;;
51190;SDS011;37253;48.736;9.294;2024-03-02T07:26:12;1.42;;;0.98;;
51190;SDS011;37253;48.736;9.294;2024-03-02T07:28:13;1.58;;;1.05;;
51190;SDS011;37253;48.736;9.294;2024-03-02T07:30:14;4.35;;;0.82;;
51190;SDS011;37253;48.736;9.294;2024-03-02T07:32:16;0.98;;;0.88;;
51190;SDS011;37253;48.736;9.294;2024-03-02T07:34:16;2.38;;;1.25;;
51190;SDS011;37253;48.736;9.294;2024-03-02T07:36:16;1.02;;;0.95;;
51190;SDS011;37253;48.736;9.294;2024-03-02T07:38:17;3.08;;;0.98;;
51190;SDS011;37253;48.736;9.294;2024-03-02T07:40:17;1.25;;;1.00;;
51190;SDS011;37253;48.736;9.294;2024-03-02T07:42:17;2.20;;;1.00;;
51190;SDS011;37253;48.736;9.294;2024-03-02T07:44:18;1.08;;;0.82;;
51190;SDS011;37253;48.736;9.294;2024-03-02T07:46:18;1.20;;;1.10;;
51190;SDS011;37253;48.736;9.294;2024-03-02T07:48:19;1.17;;;0.95;;
51190;SDS011;37253;48.736;9.294;2024-03-02T07:50:19;1.88;;;1.15;;
51190;SDS011;37253;48.736;9.294;2024-03-02T07:52:19;1.05;;;0.95;;
51190;SDS011;37253;48.736;9.294;2024-03-02T07:54:20;1.75;;;1.10;;
51190;SDS011;37253;48.736;9.294;2024-03-02T07:56:20;1.83;;;1.00;;
51190;SDS011;37253;48.736;9.294;2024-03-02T07:58:22;1.00;;;0.90;;
51190;SDS011;37253;48.736;9.294;2024-03-02T08:00:23;2.83;;;0.90;;
51190;SDS011;37253;48.736;9.294;2024-03-02T08:02:23;1.65;;;0.90;;
51190;SDS011;37253;48.736;9.294;2024-03-02T08:04:24;1.10;;;0.90;;
51190;SDS011;37253;48.736;9.294;2024-03-02T08:06:25;1.27;;;1.00;;
51190;SDS011;37253;48.736;9.294;2024-03-02T08:08:27;2.30;;;0.88;;
51190;SDS011;37253;48.736;9.294;2024-03-02T08:10:27;5.03;;;1.02;;
51190;SDS011;37253;48.736;9.294;2024-03-02T08:12:28;2.08;;;1.00;;
51190;SDS011;37253;48.736;9.294;2024-03-02T08:14:28;1.92;;;0.93;;
51190;SDS011;37253;48.736;9.294;2024-03-02T08:16:28;2.05;;;1.20;;
51190;SDS011;37253;48.736;9.294;2024-03-02T08:18:29;3.00;;;1.00;;
51190;SDS011;37253;48.736;9.294;2024-03-02T08:20:29;1.83;;;0.90;;
51190;SDS011;37253;48.736;9.294;2024-03-02T08:22:30;1.95;;;1.00;;
51190;SDS011;37253;48.736;9.294;2024-03-02T08:24:30;2.83;;;1.10;;
51190;SDS011;37253;48.736;9.294;2024-03-02T08:26:30;1.13;;;1.00;;
51190;SDS011;37253;48.736;9.294;2024-03-02T08:28:31;2.33;;;1.10;;
51190;SDS011;37253;48.736;9.294;2024-03-02T08:30:32;1.30;;;0.90;;
51190;SDS011;37253;48.736;9.294;2024-03-02T08:32:32;2.67;;;1.02;;
51190;SDS011;37253;48.736;9.294;2024-03-02T08:34:33;1.25;;;1.15;;
51190;SDS011;37253;48.736;9.294;2024-03-02T08:36:35;1.00;;;0.90;;
51190;SDS011;37253;48.736;9.294;2024-03-02T08:38:36;1.45;;;1.25;;
51190;SDS011;37253;48.736;9.294;2024-03-02T08:40:36;2.67;;;1.10;;
51190;SDS011;37253;48.736;9.294;2024-03-02T08:42:36;1.25;;;1.00;;
51190;SDS011;37253;48.736;9.294;2024-03-02T08:44:37;1.15;;;1.05;;
51190;SDS011;37253;48.736;9.294;2024-03-02T08:46:37;1.55;;;1.00;;
51190;SDS011;37253;48.736;9.294;2024-03-02T08:48:38;3.15;;;1.17;;
51190;SDS011;37253;48.736;9.294;2024-03-02T08:50:39;1.98;;;1.13;;
51190;SDS011;37253;48.736;9.294;2024-03-02T08:52:39;1.33;;;1.10;;
51190;SDS011;37253;48.736;9.294;2024-03-02T08:54:40;3.20;;;1.20;;
51190;SDS011;37253;48.736;9.294;2024-03-02T08:56:40;1.77;;;1.02;;
51190;SDS011;37253;48.736;9.294;2024-03-02T08:58:41;2.13;;;1.10;;
51190;SDS011;37253;48.736;9.294;2024-03-02T09:00:41;3.03;;;1.10;;
51190;SDS011;37253;48.736;9.294;2024-03-02T09:02:43;1.60;;;0.95;;
51190;SDS011;37253;48.736;9.294;2024-03-02T09:04:44;1.50;;;1.40;;
51190;SDS011;37253;48.736;9.294;2024-03-02T09:06:44;1.10;;;1.00;;
51190;SDS011;37253;48.736;9.294;2024-03-02T09:08:44;2.30;;;1.20;;
51190;SDS011;37253;48.736;9.294;2024-03-02T09:10:45;1.58;;;1.10;;
51190;SDS011;37253;48.736;9.294;2024-03-02T09:12:45;3.13;;;1.20;;
51190;SDS011;37253;48.736;9.294;2024-03-02T09:14:45;11.07;;;1.23;;
51190;SDS011;37253;48.736;9.294;2024-03-02T09:16:46;2.97;;;1.08;;
51190;SDS011;37253;48.736;9.294;2024-03-02T09:18:47;1.42;;;1.17;;
51190;SDS011;37253;48.736;9.294;2024-03-02T09:20:47;2.92;;;1.30;;
51190;SDS011;37253;48.736;9.294;2024-03-02T09:22:47;3.58;;;1.10;;
51190;SDS011;37253;48.736;9.294;2024-03-02T09:24:48;1.77;;;1.00;;
51190;SDS011;37253;48.736;9.294;2024-03-02T09:26:49;2.90;;;1.30;;
51190;SDS011;37253;48.736;9.294;2024-03-02T09:28:49;7.70;;;1.23;;
51190;SDS011;37253;48.736;9.294;2024-03-02T09:30:49;3.47;;;1.20;;
51190;SDS011;37253;48.736;9.294;2024-03-02T09:32:50;1.80;;;1.10;;
51190;SDS011;37253;48.736;9.294;2024-03-02T09:34:50;1.98;;;0.93;;
51190;SDS011;37253;48.736;9.294;2024-03-02T09:36:51;1.88;;;1.10;;
51190;SDS011;37253;48.736;9.294;2024-03-02T09:38:51;1.60;;;1.08;;
51190;SDS011;37253;48.736;9.294;2024-03-02T09:40:52;1.27;;;1.00;;
51190;SDS011;37253;48.736;9.294;2024-03-02T09:42:52;5.85;;;1.30;;
51190;SDS011;37253;48.736;9.294;2024-03-02T09:44:53;5.53;;;1.30;;
51190;SDS011;37253;48.736;9.294;2024-03-02T09:46:53;4.57;;;1.10;;
51190;SDS011;37253;48.736;9.294;2024-03-02T09:48:53;1.83;;;1.20;;
51190;SDS011;37253;48.736;9.294;2024-03-02T09:50:54;3.13;;;1.30;;
51190;SDS011;37253;48.736;9.294;2024-03-02T09:52:54;5.05;;;1.35;;
51190;SDS011;37253;48.736;9.294;2024-03-02T09:54:55;1.88;;;1.23;;
51190;SDS011;37253;48.736;9.294;2024-03-02T09:56:55;2.05;;;1.20;;
51190;SDS011;37253;48.736;9.294;2024-03-02T09:58:55;3.40;;;1.20;;
51190;SDS011;37253;48.736;9.294;2024-03-02T10:00:56;3.35;;;1.33;;
51190;SDS011;37253;48.736;9.294;2024-03-02T10:02:56;2.20;;;1.20;;
51190;SDS011;37253;48.736;9.294;2024-03-02T10:04:58;1.42;;;1.00;;
51190;SDS011;37253;48.736;9.294;2024-03-02T10:07:20;1.75;;;1.30;;
51190;SDS011;37253;48.736;9.294;2024-03-02T10:09:28;3.10;;;1.27;;
51190;SDS011;37253;48.736;9.294;2024-03-02T10:11:33;1.02;;;0.93;;
51190;SDS011;37253;48.736;9.294;2024-03-02T10:13:36;1.98;;;0.93;;
51190;SDS011;37253;48.736;9.294;2024-03-02T10:15:37;2.95;;;1.10;;
51190;SDS011;37253;48.736;9.294;2024-03-02T10:17:38;1.40;;;0.98;;
51190;SDS011;37253;48.736;9.294;2024-03-02T10:19:39;1.90;;;1.00;;
51190;SDS011;37253;48.736;9.294;2024-03-02T10:21:39;1.27;;;1.10;;
51190;SDS011;37253;48.736;9.294;2024-03-02T10:23:40;2.15;;;0.95;;
51190;SDS011;37253;48.736;9.294;2024-03-02T10:25:41;2.80;;;0.95;;
51190;SDS011;37253;48.736;9.294;2024-03-02T10:27:41;1.45;;;0.90;;
51190;SDS011;37253;48.736;9.294;2024-03-02T10:29:42;1.60;;;1.10;;
51190;SDS011;37253;48.736;9.294;2024-03-02T10:31:46;1.55;;;0.90;;
51190;SDS011;37253;48.736;9.294;2024-03-02T10:33:46;7.43;;;1.23;;
51190;SDS011;37253;48.736;9.294;2024-03-02T10:35:47;1.05;;;0.80;;
51190;SDS011;37253;48.736;9.294;2024-03-02T10:37:49;1.23;;;0.90;;
51190;SDS011;37253;48.736;9.294;2024-03-02T10:39:51;1.02;;;0.77;;
51190;SDS011;37253;48.736;9.294;2024-03-02T10:41:52;2.17;;;0.90;;
51190;SDS011;37253;48.736;9.294;2024-03-02T10:43:53;2.60;;;1.00;;
51190;SDS011;37253;48.736;9.294;2024-03-02T10:45:59;3.10;;;1.00;;
51190;SDS011;37253;48.736;9.294;2024-03-02T10:48:00;2.42;;;0.93;;
51190;SDS011;37253;48.736;9.294;2024-03-02T10:50:02;1.88;;;1.27;;
51190;SDS011;37253;48.736;9.294;2024-03-02T10:52:06;2.65;;;1.20;;
51190;SDS011;37253;48.736;9.294;2024-03-02T10:54:08;1.23;;;0.90;;
51190;SDS011;37253;48.736;9.294;2024-03-02T10:56:09;1.10;;;0.73;;
51190;SDS011;37253;48.736;9.294;2024-03-02T10:58:11;1.95;;;1.15;;
51190;SDS011;37253;48.736;9.294;2024-03-02T11:00:12;2.10;;;1.08;;
51190;SDS011;37253;48.736;9.294;2024-03-02T11:02:15;3.80;;;1.00;;
51190;SDS011;37253;48.736;9.294;2024-03-02T11:04:19;1.60;;;1.00;;
51190;SDS011;37253;48.736;9.294;2024-03-02T11:06:22;1.65;;;0.98;;
51190;SDS011;37253;48.736;9.294;2024-03-02T11:08:23;7.63;;;1.30;;
51190;SDS011;37253;48.736;9.294;2024-03-02T11:10:25;6.63;;;1.13;;
51190;SDS011;37253;48.736;9.294;2024-03-02T11:12:28;3.05;;;1.08;;
51190;SDS011;37253;48.736;9.294;2024-03-02T11:14:30;4.00;;;0.90;;
51190;SDS011;37253;48.736;9.294;2024-03-02T11:16:35;5.18;;;1.10;;
51190;SDS011;37253;48.736;9.294;2024-03-02T11:18:36;3.20;;;0.90;;
51190;SDS011;37253;48.736;9.294;2024-03-02T11:20:37;4.65;;;1.08;;
51190;SDS011;37253;48.736;9.294;2024-03-02T11:22:39;5.25;;;1.13;;
51190;SDS011;37253;48.736;9.294;2024-03-02T11:24:39;8.55;;;1.60;;
51190;SDS011;37253;48.736;9.294;2024-03-02T11:26:47;8.73;;;1.10;;
51190;SDS011;37253;48.736;9.294;2024-03-02T11:28:48;7.35;;;1.20;;
51190;SDS011;37253;48.736;9.294;2024-03-02T11:30:49;8.10;;;1.08;;
51190;SDS011;37253;48.736;9.294;2024-03-02T11:32:54;4.10;;;1.05;;
51190;SDS011;37253;48.736;9.294;2024-03-02T11:34:55;4.80;;;1.20;;
51190;SDS011;37253;48.736;9.294;2024-03-02T11:36:56;3.83;;;0.93;;
51190;SDS011;37253;48.736;9.294;2024-03-02T11:38:56;8.18;;;1.33;;
51190;SDS011;37253;48.736;9.294;2024-03-02T11:40:57;4.22;;;1.27;;
51190;SDS011;37253;48.736;9.294;2024-03-02T11:42:59;7.68;;;1.30;;
51190;SDS011;37253;48.736;9.294;2024-03-02T11:44:59;5.40;;;1.38;;
51190;SDS011;37253;48.736;9.294;2024-03-02T11:49:07;4.18;;;1.10;;
51190;SDS011;37253;48.736;9.294;2024-03-02T11:51:09;3.88;;;1.25;;
51190;SDS011;37253;48.736;9.294;2024-03-02T11:53:11;4.00;;;1.08;;
51190;SDS011;37253;48.736;9.294;2024-03-02T11:55:13;6.93;;;1.30;;
51190;SDS011;37253;48.736;9.294;2024-03-02T11:57:15;6.65;;;1.35;;
51190;SDS011;37253;48.736;9.294;2024-03-02T11:59:16;3.07;;;0.90;;
51190;SDS011;37253;48.736;9.294;2024-03-02T12:01:17;5.50;;;1.38;;
51190;SDS011;37253;48.736;9.294;2024-03-02T12:03:17;4.53;;;1.13;;
51190;SDS011;37253;48.736;9.294;2024-03-02T12:05:18;5.97;;;1.02;;
51190;SDS011;37253;48.736;9.294;2024-03-02T12:07:19;5.85;;;1.10;;
51190;SDS011;37253;48.736;9.294;2024-03-02T12:09:23;3.55;;;1.10;;
51190;SDS011;37253;48.736;9.294;2024-03-02T12:11:23;3.05;;;1.08;;
51190;SDS011;37253;48.736;9.294;2024-03-02T12:13:24;4.68;;;1.17;;
51190;SDS011;37253;48.736;9.294;2024-03-02T12:15:25;5.40;;;1.00;;
51190;SDS011;37253;48.736;9.294;2024-03-02T12:17:26;6.22;;;1.00;;
51190;SDS011;37253;48.736;9.294;2024-03-02T12:19:27;4.13;;;1.00;;